createdAt,value
2023-03-31T00:01:58.315Z,9.47
2023-03-31T00:04:25.488Z,9.46
2023-03-31T00:06:54.526Z,9.43
2023-03-31T00:09:22.395Z,9.44
2023-03-31T00:11:50.118Z,9.44
2023-03-31T00:14:18.752Z,9.43
2023-03-31T00:16:46.174Z,9.42
2023-03-31T00:19:14.222Z,9.36
2023-03-31T00:21:41.392Z,9.39
2023-03-31T00:24:12.198Z,9.38
2023-03-31T00:26:39.460Z,9.41
2023-03-31T00:29:08.771Z,9.37
2023-03-31T00:31:36.286Z,9.33
2023-03-31T00:34:03.521Z,9.33
2023-03-31T00:36:30.763Z,9.31
2023-03-31T00:38:59.839Z,9.26
2023-03-31T00:41:29.811Z,9.31
2023-03-31T00:44:05.553Z,9.32
2023-03-31T00:46:36.167Z,9.27
2023-03-31T00:49:04.254Z,9.24
2023-03-31T00:51:34.277Z,9.23
2023-03-31T00:54:05.778Z,9.23
2023-03-31T00:56:39.801Z,9.27
2023-03-31T00:59:11.021Z,9.26
2023-03-31T01:01:39.730Z,9.26
2023-03-31T01:04:07.484Z,9.28
2023-03-31T01:06:38.486Z,9.36
2023-03-31T01:09:07.920Z,9.32
2023-03-31T01:11:36.977Z,9.26
2023-03-31T01:14:04.254Z,9.21
2023-03-31T01:16:31.498Z,9.24
2023-03-31T01:18:58.749Z,9.15
2023-03-31T01:22:01.517Z,9.10
2023-03-31T01:25:01.230Z,9.14
2023-03-31T01:27:46.849Z,9.16
2023-03-31T01:31:01.513Z,9.17
2023-03-31T01:34:19.622Z,9.15
2023-03-31T01:37:18.144Z,9.17
2023-03-31T01:40:18.989Z,9.17
2023-03-31T01:42:52.708Z,9.13
2023-03-31T01:45:30.474Z,9.15
2023-03-31T01:48:01.744Z,9.16
2023-03-31T01:50:34.487Z,9.19
2023-03-31T01:53:05.808Z,9.18
2023-03-31T01:55:38.835Z,9.12
2023-03-31T01:58:11.906Z,9.15
2023-03-31T02:00:45.271Z,9.13
2023-03-31T02:03:18.836Z,9.13
2023-03-31T02:05:50.009Z,9.07
2023-03-31T02:08:22.296Z,9.09
2023-03-31T02:10:53.878Z,9.07
2023-03-31T02:13:23.831Z,9.05
2023-03-31T02:15:55.025Z,9.06
2023-03-31T02:18:26.005Z,9.04
2023-03-31T02:20:55.329Z,9.02
2023-03-31T02:23:25.114Z,9.03
2023-03-31T02:26:01.078Z,8.97
2023-03-31T02:28:29.016Z,8.97
2023-03-31T02:31:08.231Z,8.98
2023-03-31T02:33:35.617Z,8.96
2023-03-31T02:36:04.930Z,8.92
2023-03-31T02:38:37.310Z,8.94
2023-03-31T02:41:07.881Z,8.88
2023-03-31T02:43:35.103Z,8.87
2023-03-31T02:46:02.633Z,8.77
2023-03-31T02:48:36.184Z,8.82
2023-03-31T02:51:34.661Z,8.79
2023-03-31T02:54:25.574Z,8.79
2023-03-31T02:57:40.617Z,8.78
2023-03-31T03:00:21.451Z,8.74
2023-03-31T03:03:02.507Z,8.69
2023-03-31T03:05:38.007Z,8.64
2023-03-31T03:08:46.836Z,8.61
2023-03-31T03:11:21.896Z,8.52
2023-03-31T03:13:52.635Z,8.50
2023-03-31T03:16:24.825Z,8.42
2023-03-31T03:18:58.253Z,8.44
2023-03-31T03:21:25.633Z,8.44
2023-03-31T03:23:53.157Z,8.41
2023-03-31T03:26:20.649Z,8.40
2023-03-31T03:28:48.024Z,8.44
2023-03-31T03:31:15.670Z,8.43
2023-03-31T03:33:44.398Z,8.43
2023-03-31T03:36:11.622Z,8.47
2023-03-31T03:38:38.903Z,8.49
2023-03-31T03:41:06.905Z,8.52
2023-03-31T03:43:34.351Z,8.52
2023-03-31T03:46:02.065Z,8.56
2023-03-31T03:48:29.234Z,8.58
2023-03-31T03:50:59.309Z,8.62
2023-03-31T03:53:26.533Z,8.58
2023-03-31T03:55:53.704Z,8.55
2023-03-31T03:58:20.973Z,8.53
2023-03-31T04:00:48.269Z,8.54
2023-03-31T04:03:15.506Z,8.54
2023-03-31T04:05:42.734Z,8.54
2023-03-31T04:08:11.267Z,8.55
2023-03-31T04:10:43.384Z,8.54
2023-03-31T04:13:10.555Z,8.54
2023-03-31T04:15:37.702Z,8.55
2023-03-31T04:18:05.121Z,8.57
2023-03-31T04:20:32.423Z,8.59
2023-03-31T04:22:59.617Z,8.61
2023-03-31T04:25:28.352Z,8.66
2023-03-31T04:27:55.515Z,8.67
2023-03-31T04:30:23.752Z,8.66
2023-03-31T04:32:52.185Z,8.66
2023-03-31T04:35:20.118Z,8.55
2023-03-31T04:37:47.956Z,8.52
2023-03-31T04:40:15.664Z,8.48
2023-03-31T04:42:44.978Z,8.45
2023-03-31T04:45:12.751Z,8.42
2023-03-31T04:47:39.963Z,8.40
2023-03-31T04:50:08.697Z,8.41
2023-03-31T04:52:37.774Z,8.38
2023-03-31T04:55:05.785Z,8.41
2023-03-31T04:57:32.982Z,8.36
2023-03-31T05:00:01.533Z,8.37
2023-03-31T05:02:28.813Z,8.29
2023-03-31T05:04:56.042Z,8.29
2023-03-31T05:07:23.220Z,8.32
2023-03-31T05:09:50.407Z,8.30
2023-03-31T05:12:17.634Z,8.29
2023-03-31T05:14:44.837Z,8.31
2023-03-31T05:17:13.421Z,8.37
2023-03-31T05:19:40.588Z,8.39
2023-03-31T05:22:07.771Z,8.41
2023-03-31T05:24:34.989Z,8.38
2023-03-31T05:27:02.198Z,8.44
2023-03-31T05:29:29.419Z,8.44
2023-03-31T05:31:56.586Z,8.47
2023-03-31T05:34:25.089Z,8.48
2023-03-31T05:36:52.264Z,8.45
2023-03-31T05:39:19.680Z,8.50
2023-03-31T05:41:46.989Z,8.51
2023-03-31T05:44:15.316Z,8.54
2023-03-31T05:46:42.742Z,8.54
2023-03-31T05:49:09.923Z,8.56
2023-03-31T05:51:38.434Z,8.60
2023-03-31T05:54:05.608Z,8.63
2023-03-31T05:56:32.826Z,8.65
2023-03-31T05:59:00.069Z,8.70
2023-03-31T06:01:27.873Z,8.70
2023-03-31T06:03:55.927Z,8.75
2023-03-31T06:06:23.342Z,8.78
2023-03-31T06:08:52.115Z,8.78
2023-03-31T06:11:21.608Z,8.85
2023-03-31T06:13:49.321Z,8.80
2023-03-31T06:16:17.303Z,8.78
2023-03-31T06:18:45.046Z,8.73
2023-03-31T06:21:13.681Z,8.78
2023-03-31T06:23:40.999Z,8.76
2023-03-31T06:26:12.818Z,8.78
2023-03-31T06:28:39.798Z,8.79
2023-03-31T06:31:08.929Z,8.80
2023-03-31T06:33:36.311Z,8.81
2023-03-31T06:36:04.192Z,8.83
2023-03-31T06:38:32.024Z,8.83
2023-03-31T06:40:59.254Z,8.84
2023-03-31T06:43:27.788Z,8.85
2023-03-31T06:45:56.172Z,8.90
2023-03-31T06:48:24.510Z,8.95
2023-03-31T06:50:53.578Z,9.01
2023-03-31T06:53:21.150Z,9.01
2023-03-31T06:55:48.370Z,9.04
2023-03-31T06:58:15.684Z,9.03
2023-03-31T07:00:44.199Z,9.05
2023-03-31T07:03:12.012Z,9.09
2023-03-31T07:05:39.445Z,9.11
2023-03-31T07:08:06.629Z,9.14
2023-03-31T07:10:33.859Z,9.19
2023-03-31T07:13:03.693Z,9.16
2023-03-31T07:15:32.317Z,9.16
2023-03-31T07:18:01.019Z,9.18
2023-03-31T07:20:29.479Z,9.18
2023-03-31T07:22:56.995Z,9.21
2023-03-31T07:25:24.571Z,9.24
2023-03-31T07:27:51.742Z,9.28
2023-03-31T07:30:19.956Z,9.26
2023-03-31T07:32:48.581Z,9.25
2023-03-31T07:35:18.843Z,9.23
2023-03-31T07:37:47.653Z,9.17
2023-03-31T07:40:17.347Z,9.20
2023-03-31T07:42:46.026Z,9.24
2023-03-31T07:45:16.379Z,9.30
2023-03-31T07:47:44.131Z,9.30
2023-03-31T07:50:11.341Z,9.32
2023-03-31T07:52:40.543Z,9.34
2023-03-31T07:55:08.704Z,9.26
2023-03-31T07:57:36.837Z,9.24
2023-03-31T08:00:05.490Z,9.36
2023-03-31T08:02:39.937Z,9.36
2023-03-31T08:05:07.701Z,9.35
2023-03-31T08:07:35.655Z,9.42
2023-03-31T08:10:05.845Z,9.33
2023-03-31T08:12:33.239Z,9.35
2023-03-31T08:15:00.497Z,9.30
2023-03-31T08:17:27.755Z,9.33
2023-03-31T08:19:54.917Z,9.36
2023-03-31T08:22:22.190Z,9.44
2023-03-31T08:24:49.454Z,9.42
2023-03-31T08:27:17.982Z,9.53
2023-03-31T08:29:45.149Z,9.58
2023-03-31T08:32:12.352Z,9.70
2023-03-31T08:34:39.559Z,9.78
2023-03-31T08:37:06.715Z,9.85
2023-03-31T08:39:33.885Z,9.99
2023-03-31T08:42:04.911Z,9.99
2023-03-31T08:44:37.872Z,10.16
2023-03-31T08:47:12.961Z,10.34
2023-03-31T08:49:45.237Z,10.46
2023-03-31T08:52:15.768Z,10.63
2023-03-31T08:54:46.613Z,11.01
2023-03-31T08:57:18.198Z,11.34
2023-03-31T08:59:46.831Z,11.73
2023-03-31T09:02:24.143Z,12.44
2023-03-31T09:05:21.617Z,12.91
2023-03-31T09:07:58.698Z,12.92
2023-03-31T09:10:35.690Z,13.18
2023-03-31T09:13:15.526Z,13.39
2023-03-31T09:15:50.532Z,13.43
2023-03-31T09:18:25.454Z,13.37
2023-03-31T09:20:57.164Z,13.50
2023-03-31T09:23:27.181Z,13.56
2023-03-31T09:25:56.886Z,13.71
2023-03-31T09:28:29.921Z,13.51
2023-03-31T09:30:58.492Z,13.44
2023-03-31T09:33:28.173Z,13.53
2023-03-31T09:35:55.421Z,13.67
2023-03-31T09:38:22.632Z,13.64
2023-03-31T09:40:50.043Z,13.64
2023-03-31T09:43:22.389Z,13.45
2023-03-31T09:46:07.791Z,13.31
2023-03-31T09:48:38.821Z,13.60
2023-03-31T09:51:08.303Z,13.79
2023-03-31T09:53:41.443Z,13.93
2023-03-31T09:56:09.732Z,14.27
2023-03-31T09:58:41.173Z,13.91
2023-03-31T10:01:10.882Z,13.73
2023-03-31T10:03:49.218Z,13.94
2023-03-31T10:06:17.432Z,13.89
2023-03-31T10:08:49.959Z,13.85
2023-03-31T10:11:17.827Z,13.79
2023-03-31T10:13:47.933Z,13.88
2023-03-31T10:16:22.204Z,13.88
2023-03-31T10:18:50.853Z,13.86
2023-03-31T10:21:21.841Z,13.88
2023-03-31T10:23:50.484Z,13.70
2023-03-31T10:26:21.379Z,14.13
2023-03-31T10:28:50.586Z,14.23
2023-03-31T10:31:18.472Z,14.48
2023-03-31T10:33:48.730Z,14.43
2023-03-31T10:36:22.090Z,14.38
2023-03-31T10:38:51.042Z,14.56
2023-03-31T10:41:20.398Z,14.59
2023-03-31T10:43:50.863Z,14.70
2023-03-31T10:46:18.563Z,14.41
2023-03-31T10:48:46.043Z,14.21
2023-03-31T10:51:17.146Z,14.44
2023-03-31T10:53:47.340Z,14.48
2023-03-31T10:56:38.946Z,14.04
2023-03-31T10:59:16.438Z,13.67
2023-03-31T11:01:59.003Z,13.47
2023-03-31T11:04:47.367Z,13.14
2023-03-31T11:07:27.430Z,12.69
2023-03-31T11:10:11.603Z,12.06
2023-03-31T11:12:43.823Z,11.67
2023-03-31T11:15:21.565Z,11.49
2023-03-31T11:18:03.437Z,11.41
2023-03-31T11:20:34.433Z,11.18
2023-03-31T11:23:10.119Z,11.00
2023-03-31T11:25:50.251Z,10.90
2023-03-31T11:28:39.362Z,10.93
2023-03-31T11:31:24.516Z,10.82
2023-03-31T11:34:11.094Z,10.78
2023-03-31T11:36:55.977Z,10.93
2023-03-31T11:39:34.696Z,11.13
2023-03-31T11:42:09.245Z,11.32
2023-03-31T11:44:41.203Z,11.68
2023-03-31T11:47:13.063Z,11.81
2023-03-31T11:49:45.784Z,12.07
2023-03-31T11:52:16.586Z,12.27
2023-03-31T11:54:52.830Z,12.54
2023-03-31T11:57:28.606Z,12.87
2023-03-31T11:59:59.583Z,13.22
2023-03-31T12:02:38.984Z,13.36
2023-03-31T12:05:09.664Z,13.41
2023-03-31T12:07:42.187Z,13.55
2023-03-31T12:10:19.503Z,13.56
2023-03-31T12:12:54.602Z,13.43
2023-03-31T12:15:25.071Z,13.79
2023-03-31T12:17:59.757Z,14.06
2023-03-31T12:20:33.132Z,14.08
2023-03-31T12:23:03.461Z,14.23
2023-03-31T12:25:43.830Z,14.17
2023-03-31T12:28:12.664Z,14.15
2023-03-31T12:30:42.842Z,14.31
2023-03-31T12:33:16.741Z,14.29
2023-03-31T12:35:57.999Z,14.45
2023-03-31T12:38:37.157Z,14.09
2023-03-31T12:41:12.091Z,14.33
2023-03-31T12:44:06.459Z,13.93
2023-03-31T12:46:48.131Z,14.09
2023-03-31T12:49:42.292Z,14.29
2023-03-31T12:52:15.752Z,14.48
2023-03-31T12:55:06.785Z,14.17
2023-03-31T12:57:34.032Z,14.14
2023-03-31T13:00:21.363Z,13.86
2023-03-31T13:02:49.044Z,13.53
2023-03-31T13:05:44.256Z,13.26
2023-03-31T13:08:31.487Z,12.85
2023-03-31T13:10:59.668Z,12.62
2023-03-31T13:13:27.063Z,12.51
2023-03-31T13:15:57.548Z,12.41
2023-03-31T13:18:25.298Z,12.40
2023-03-31T13:20:58.666Z,12.58
2023-03-31T13:23:26.458Z,12.60
2023-03-31T13:25:54.978Z,12.62
2023-03-31T13:28:39.551Z,12.79
2023-03-31T13:31:10.142Z,12.97
2023-03-31T13:33:41.624Z,13.10
2023-03-31T13:36:58.305Z,13.08
2023-03-31T13:39:46.498Z,12.77
2023-03-31T13:42:27.696Z,12.76
2023-03-31T13:45:13.620Z,12.87
2023-03-31T13:48:00.689Z,13.13
2023-03-31T13:50:53.288Z,13.44
2023-03-31T13:53:32.436Z,13.42
2023-03-31T13:56:09.263Z,13.51
2023-03-31T13:59:05.771Z,13.75
2023-03-31T14:01:55.637Z,13.75
2023-03-31T14:04:39.339Z,13.77
2023-03-31T14:07:09.588Z,14.07
2023-03-31T14:09:40.262Z,14.14
2023-03-31T14:12:20.084Z,14.18
2023-03-31T14:14:47.429Z,14.02
2023-03-31T14:17:15.616Z,14.04
2023-03-31T14:20:14.865Z,13.91
2023-03-31T14:22:48.396Z,14.07
2023-03-31T14:25:24.485Z,14.23
2023-03-31T14:28:00.283Z,14.59
2023-03-31T14:30:35.782Z,14.74
2023-03-31T14:33:16.113Z,14.87
2023-03-31T14:35:55.539Z,14.83
2023-03-31T14:38:23.558Z,14.59
2023-03-31T14:40:53.145Z,14.56
2023-03-31T14:43:22.469Z,14.79
2023-03-31T14:45:58.405Z,14.62
2023-03-31T14:48:27.682Z,14.39
2023-03-31T14:51:01.050Z,14.18
2023-03-31T14:53:28.475Z,14.34
2023-03-31T14:56:02.738Z,13.90
2023-03-31T14:58:33.349Z,13.83
2023-03-31T15:01:02.128Z,13.81
2023-03-31T15:03:31.373Z,13.85
2023-03-31T15:06:02.349Z,13.75
2023-03-31T15:08:31.907Z,13.59
2023-03-31T15:11:12.449Z,13.17
2023-03-31T15:13:46.813Z,13.34
2023-03-31T15:16:21.781Z,13.22
2023-03-31T15:18:53.516Z,13.07
2023-03-31T15:21:23.998Z,13.10
2023-03-31T15:23:51.892Z,13.22
2023-03-31T15:29:14.297Z,12.91
2023-03-31T15:31:41.690Z,13.00
2023-03-31T15:34:15.492Z,13.03
2023-03-31T15:36:44.228Z,12.91
2023-03-31T15:39:13.299Z,12.94
2023-03-31T15:41:42.172Z,13.08
2023-03-31T15:44:29.239Z,12.92
2023-03-31T15:46:59.742Z,12.84
2023-03-31T15:49:28.034Z,12.76
2023-03-31T15:51:56.660Z,12.42
2023-03-31T15:54:30.873Z,12.32
2023-03-31T15:57:00.943Z,12.18
2023-03-31T15:59:37.856Z,12.17
2023-03-31T16:02:13.350Z,12.05
2023-03-31T16:04:40.813Z,11.92
2023-03-31T16:07:16.695Z,11.87
2023-03-31T16:09:49.831Z,11.84
2023-03-31T16:12:22.784Z,11.81
2023-03-31T16:14:54.935Z,11.87
2023-03-31T16:17:29.855Z,11.76
2023-03-31T16:20:01.599Z,11.80
2023-03-31T16:22:34.778Z,11.60
2023-03-31T16:25:02.052Z,11.75
2023-03-31T16:27:29.221Z,11.80
2023-03-31T16:30:08.250Z,11.87
2023-03-31T16:32:35.658Z,11.89
2023-03-31T16:35:04.649Z,11.91
2023-03-31T16:37:33.201Z,11.96
2023-03-31T16:40:00.386Z,12.05
2023-03-31T16:42:27.939Z,11.99
2023-03-31T16:47:35.136Z,11.83
2023-03-31T16:50:03.988Z,11.81
2023-03-31T16:52:31.136Z,11.65
2023-03-31T16:54:59.704Z,11.40
2023-03-31T16:57:26.990Z,11.29
2023-03-31T16:59:54.736Z,11.21
2023-03-31T17:02:23.270Z,11.05
2023-03-31T17:04:52.305Z,11.03
2023-03-31T17:07:19.579Z,10.99
2023-03-31T17:09:46.760Z,10.98
2023-03-31T17:12:15.443Z,10.89
2023-03-31T17:14:42.626Z,10.78
2023-03-31T17:17:09.897Z,10.68
2023-03-31T17:19:37.195Z,10.71
2023-03-31T17:22:04.364Z,10.63
2023-03-31T17:24:31.561Z,10.65
2023-03-31T17:26:58.731Z,10.58
2023-03-31T17:29:27.379Z,10.59
2023-03-31T17:31:54.643Z,10.48
2023-03-31T17:34:21.915Z,10.28
2023-03-31T17:36:49.092Z,10.28
2023-03-31T17:39:16.312Z,10.30
2023-03-31T17:41:43.514Z,10.27
2023-03-31T17:44:10.701Z,10.25
2023-03-31T17:46:39.307Z,10.21
2023-03-31T17:49:06.522Z,10.17
2023-03-31T17:51:33.729Z,10.20
2023-03-31T17:54:01.129Z,10.19
2023-03-31T17:56:28.907Z,10.17
2023-03-31T17:58:56.187Z,10.15
2023-03-31T18:01:23.496Z,10.09
2023-03-31T18:03:52.093Z,10.02
2023-03-31T18:06:19.316Z,9.98
2023-03-31T18:08:46.540Z,10.00
2023-03-31T18:11:13.856Z,9.98
2023-03-31T18:13:41.224Z,9.94
2023-03-31T18:16:09.804Z,9.93
2023-03-31T18:18:37.783Z,9.89
2023-03-31T18:21:08.204Z,9.84
2023-03-31T18:23:36.022Z,9.85
2023-03-31T18:26:06.559Z,9.89
2023-03-31T18:28:33.750Z,9.84
2023-03-31T18:31:02.651Z,9.85
2023-03-31T18:33:29.879Z,9.84
2023-03-31T18:35:57.228Z,9.88
2023-03-31T18:38:26.537Z,9.88
2023-03-31T18:40:55.428Z,9.81
2023-03-31T18:43:24.515Z,9.76
2023-03-31T18:45:53.009Z,9.76
2023-03-31T18:48:21.328Z,9.75
2023-03-31T18:50:49.150Z,9.79
2023-03-31T18:53:16.321Z,9.73
2023-03-31T18:55:48.777Z,9.61
2023-03-31T18:58:15.989Z,9.61
2023-03-31T19:00:43.821Z,9.63
2023-03-31T19:03:11.328Z,9.60
2023-03-31T19:05:38.553Z,9.64
2023-03-31T19:08:05.804Z,9.55
2023-03-31T19:10:32.980Z,9.59
2023-03-31T19:13:01.487Z,9.57
2023-03-31T19:15:29.081Z,9.55
2023-03-31T19:17:56.569Z,9.59
2023-03-31T19:20:24.008Z,9.55
2023-03-31T19:22:51.923Z,9.56
2023-03-31T19:25:20.246Z,9.58
2023-03-31T19:27:47.455Z,9.58
2023-03-31T19:30:18.721Z,9.50
2023-03-31T19:32:47.584Z,9.54
2023-03-31T19:35:15.280Z,9.52
2023-03-31T19:37:42.471Z,9.49
2023-03-31T19:40:10.173Z,9.53
2023-03-31T19:42:37.526Z,9.52
2023-03-31T19:45:05.581Z,9.54
2023-03-31T19:47:34.209Z,9.52
2023-03-31T19:50:01.612Z,9.54
2023-03-31T19:52:29.122Z,9.40
2023-03-31T19:54:56.347Z,9.42
2023-03-31T19:57:23.809Z,9.44
2023-03-31T19:59:51.061Z,9.45
2023-03-31T20:02:18.530Z,9.43
2023-03-31T20:04:47.330Z,9.49
2023-03-31T20:07:14.580Z,9.45
2023-03-31T20:09:41.808Z,9.46
2023-03-31T20:12:09.006Z,9.45
2023-03-31T20:14:36.302Z,9.46
2023-03-31T20:17:03.617Z,9.46
2023-03-31T20:19:30.843Z,9.42
2023-03-31T20:21:59.398Z,9.44
2023-03-31T20:24:26.665Z,9.45
2023-03-31T20:26:53.898Z,9.45
2023-03-31T20:29:21.091Z,9.46
2023-03-31T20:31:48.305Z,9.45
2023-03-31T20:34:17.157Z,9.41
2023-03-31T20:36:45.876Z,9.37
2023-03-31T20:39:15.544Z,9.37
2023-03-31T20:41:42.781Z,9.33
2023-03-31T20:44:12.745Z,9.34
2023-03-31T20:46:43.060Z,9.24
2023-03-31T20:49:10.772Z,9.24
2023-03-31T20:51:38.276Z,9.20
2023-03-31T20:54:07.017Z,9.19
2023-03-31T20:56:37.981Z,9.18
2023-03-31T20:59:06.544Z,9.18
2023-03-31T21:01:35.294Z,9.18
2023-03-31T21:04:06.237Z,9.16
2023-03-31T21:06:37.580Z,9.15
2023-03-31T21:09:05.377Z,9.13
2023-03-31T21:11:32.667Z,9.12
2023-03-31T21:14:01.423Z,9.09
2023-03-31T21:16:28.728Z,9.09
2023-03-31T21:18:56.049Z,9.04
2023-03-31T21:21:23.276Z,9.02
2023-03-31T21:23:51.010Z,9.07
2023-03-31T21:26:19.074Z,9.04
2023-03-31T21:28:46.296Z,9.07
2023-03-31T21:31:16.029Z,8.97
2023-03-31T21:33:44.471Z,9.03
2023-03-31T21:36:13.783Z,9.03
2023-03-31T21:38:41.060Z,9.04
2023-03-31T21:41:09.759Z,9.03
2023-03-31T21:43:37.070Z,9.07
2023-03-31T21:46:04.670Z,9.00
2023-03-31T21:48:33.597Z,9.05
2023-03-31T21:51:01.552Z,9.07
2023-03-31T21:53:30.733Z,9.07
2023-03-31T21:55:58.405Z,9.06
2023-03-31T21:58:27.000Z,8.96
2023-03-31T22:00:55.465Z,9.01
2023-03-31T22:03:27.599Z,9.01
2023-03-31T22:05:58.192Z,9.05
2023-03-31T22:08:26.210Z,9.00
2023-03-31T22:10:53.779Z,8.96
2023-03-31T22:13:21.830Z,9.08
2023-03-31T22:15:49.302Z,9.06
2023-03-31T22:18:16.575Z,9.10
2023-03-31T22:20:44.004Z,9.06
2023-03-31T22:23:12.756Z,9.06
2023-03-31T22:25:39.889Z,9.03
2023-03-31T22:28:08.041Z,9.02
2023-03-31T22:30:35.321Z,9.04
2023-03-31T22:33:02.552Z,9.01
2023-03-31T22:35:29.756Z,9.03
2023-03-31T22:37:56.926Z,9.06
2023-03-31T22:40:25.743Z,9.07
2023-03-31T22:42:52.944Z,9.04
2023-03-31T22:45:20.165Z,9.11
2023-03-31T22:47:47.325Z,9.08
2023-03-31T22:50:14.588Z,9.07
2023-03-31T22:52:41.769Z,9.06
2023-03-31T22:55:09.334Z,9.05
2023-03-31T22:57:38.186Z,8.97
2023-03-31T23:00:06.581Z,8.91
2023-03-31T23:02:33.813Z,8.93
2023-03-31T23:05:01.034Z,8.96
2023-03-31T23:07:28.225Z,8.92
2023-03-31T23:09:55.380Z,8.87
2023-03-31T23:12:24.918Z,8.94
2023-03-31T23:14:53.497Z,8.93
2023-03-31T23:17:20.737Z,8.95
2023-03-31T23:19:48.363Z,8.95
2023-03-31T23:22:15.691Z,8.92
2023-03-31T23:24:42.873Z,8.90
2023-03-31T23:27:10.113Z,8.94
2023-03-31T23:29:37.372Z,8.93
2023-03-31T23:32:06.119Z,8.90
2023-03-31T23:34:33.294Z,8.89
2023-03-31T23:37:00.696Z,8.89
2023-03-31T23:39:27.896Z,8.87
2023-03-31T23:41:55.067Z,8.90
2023-03-31T23:44:22.220Z,8.87
2023-03-31T23:46:49.364Z,8.84
2023-03-31T23:49:18.090Z,8.81
2023-03-31T23:51:45.249Z,8.85
2023-03-31T23:54:12.458Z,8.82
2023-03-31T23:56:39.675Z,8.83
2023-03-31T23:59:06.876Z,8.75
